createdAt,value
2018-08-09T13:01:42.114Z,528.75
2018-08-09T13:04:42.232Z,405.00
2018-08-09T13:07:13.519Z,568.13
2018-08-09T13:07:40.048Z,607.50
2018-08-09T13:10:39.441Z,601.88
2018-08-09T13:22:41.711Z,556.88
2018-08-09T13:39:41.368Z,461.25
2018-08-09T13:40:45.698Z,444.38
2018-08-09T13:42:03.270Z,495.00
2018-08-09T13:45:13.088Z,438.75
2018-08-09T13:46:15.674Z,427.50
2018-08-09T13:47:10.073Z,405.00
2018-08-09T13:48:17.109Z,382.50
2018-08-09T13:49:25.159Z,337.50
2018-08-09T13:50:17.920Z,320.63
2018-08-09T13:51:16.009Z,326.25
2018-08-09T13:52:19.980Z,292.50
2018-08-09T13:53:13.158Z,298.13
2018-08-09T13:57:19.858Z,247.50
2018-08-09T13:58:18.638Z,219.38
2018-08-09T14:00:53.170Z,219.38
2018-08-09T14:01:51.962Z,196.88
2018-08-09T14:02:47.586Z,191.25
2018-08-09T14:03:49.075Z,180.00
2018-08-09T14:04:59.719Z,174.38
2018-08-09T14:08:11.304Z,208.13
2018-08-09T14:10:06.156Z,219.38
2018-08-09T14:11:00.498Z,208.13
2018-08-09T14:12:06.377Z,236.25
2018-08-09T14:12:58.617Z,230.63
2018-08-09T14:15:33.720Z,202.50
2018-08-09T14:16:26.860Z,253.13
2018-08-09T14:17:26.528Z,292.50
2018-08-09T14:20:05.966Z,348.75
2018-08-09T14:21:07.486Z,354.38
2018-08-09T14:22:00.392Z,348.75
2018-08-09T14:22:58.472Z,343.13
2018-08-09T14:24:19.955Z,343.13
2018-08-09T14:26:39.367Z,343.13
2018-08-09T14:27:37.204Z,331.88
2018-08-09T14:28:44.163Z,331.88
2018-08-09T14:29:35.445Z,337.50
2018-08-09T14:30:33.754Z,337.50
2018-08-09T14:31:33.274Z,337.50
2018-08-09T14:32:33.857Z,348.75
2018-08-09T14:33:35.817Z,343.13
2018-08-09T14:34:39.703Z,343.13
2018-08-09T14:35:40.689Z,337.50
2018-08-09T14:36:34.556Z,337.50
2018-08-09T14:37:53.831Z,331.88
2018-08-09T14:38:32.840Z,320.63
2018-08-09T14:39:53.537Z,298.13
2018-08-09T14:40:39.327Z,286.88
2018-08-09T14:42:01.170Z,264.38
2018-08-09T14:42:34.031Z,258.75
2018-08-09T14:43:56.191Z,247.50
2018-08-09T14:44:54.571Z,219.38
2018-08-09T14:45:40.371Z,191.25
2018-08-09T14:46:48.898Z,168.75
2018-08-09T14:47:36.182Z,140.63
2018-08-09T14:48:55.838Z,106.88
2018-08-09T14:49:42.420Z,78.75
2018-08-09T14:51:07.004Z,61.88
2018-08-09T14:53:09.828Z,33.75
2018-08-09T14:54:42.492Z,33.75
2018-08-09T14:55:07.127Z,33.75
2018-08-09T14:56:07.936Z,33.75
2018-08-09T14:57:08.063Z,39.38
2018-08-09T14:58:28.693Z,45.00
2018-08-09T14:59:12.794Z,56.25
2018-08-09T15:00:30.011Z,67.50
2018-08-09T15:01:08.960Z,78.75
2018-08-09T15:02:32.271Z,84.38
2018-08-09T15:03:34.477Z,84.38
2018-08-09T15:04:15.570Z,78.75
2018-08-09T15:05:11.505Z,67.50
2018-08-09T15:06:11.959Z,61.88
2018-08-09T15:07:10.997Z,50.63
2018-08-09T15:08:13.487Z,50.63
2018-08-09T15:20:06.277Z,33.75
2018-08-09T15:21:08.435Z,28.13
2018-08-09T15:22:11.628Z,28.13
2018-08-09T15:23:07.268Z,28.13
2018-08-09T15:24:26.170Z,28.13
